sensor_id;sensor_type;location;lat;lon;timestamp;temperature;humidity
19017;DHT22;9641;51.494;6.670;2023-08-21T00:01:43;20.60;1.00
19017;DHT22;9641;51.494;6.670;2023-08-21T00:04:10;20.60;1.00
19017;DHT22;9641;51.494;6.670;2023-08-21T00:06:37;20.60;1.00
19017;DHT22;9641;51.494;6.670;2023-08-21T00:09:06;20.60;1.00
19017;DHT22;9641;51.494;6.670;2023-08-21T00:11:34;20.60;1.00
19017;DHT22;9641;51.494;6.670;2023-08-21T00:14:01;20.60;1.00
19017;DHT22;9641;51.494;6.670;2023-08-21T00:16:28;20.50;1.00
19017;DHT22;9641;51.494;6.670;2023-08-21T00:18:55;20.40;1.00
19017;DHT22;9641;51.494;6.670;2023-08-21T00:21:22;20.40;64.00
19017;DHT22;9641;51.494;6.670;2023-08-21T00:23:49;20.30;54.50
19017;DHT22;9641;51.494;6.670;2023-08-21T00:26:18;20.30;69.60
19017;DHT22;9641;51.494;6.670;2023-08-21T00:28:45;20.30;59.80
19017;DHT22;9641;51.494;6.670;2023-08-21T00:31:12;20.20;74.00
19017;DHT22;9641;51.494;6.670;2023-08-21T00:33:40;20.10;60.70
19017;DHT22;9641;51.494;6.670;2023-08-21T00:36:07;20.10;72.80
19017;DHT22;9641;51.494;6.670;2023-08-21T00:38:36;20.00;83.80
19017;DHT22;9641;51.494;6.670;2023-08-21T00:41:05;20.00;98.80
19017;DHT22;9641;51.494;6.670;2023-08-21T00:43:34;20.10;96.40
19017;DHT22;9641;51.494;6.670;2023-08-21T00:46:01;20.10;94.20
19017;DHT22;9641;51.494;6.670;2023-08-21T00:48:29;20.10;96.20
19017;DHT22;9641;51.494;6.670;2023-08-21T00:50:56;20.00;96.30
19017;DHT22;9641;51.494;6.670;2023-08-21T00:53:24;20.10;95.30
19017;DHT22;9641;51.494;6.670;2023-08-21T00:55:51;20.00;97.60
19017;DHT22;9641;51.494;6.670;2023-08-21T00:58:19;20.00;99.90
19017;DHT22;9641;51.494;6.670;2023-08-21T01:00:49;20.00;99.90
19017;DHT22;9641;51.494;6.670;2023-08-21T01:03:19;20.00;99.90
19017;DHT22;9641;51.494;6.670;2023-08-21T01:05:46;20.00;99.90
19017;DHT22;9641;51.494;6.670;2023-08-21T01:08:17;20.00;99.90
19017;DHT22;9641;51.494;6.670;2023-08-21T01:10:50;20.00;99.90
19017;DHT22;9641;51.494;6.670;2023-08-21T01:13:30;19.90;99.90
19017;DHT22;9641;51.494;6.670;2023-08-21T01:16:04;19.90;99.90
19017;DHT22;9641;51.494;6.670;2023-08-21T01:18:33;19.80;99.90
19017;DHT22;9641;51.494;6.670;2023-08-21T01:21:02;19.80;99.90
19017;DHT22;9641;51.494;6.670;2023-08-21T01:23:33;19.70;99.90
19017;DHT22;9641;51.494;6.670;2023-08-21T01:26:00;19.60;99.90
19017;DHT22;9641;51.494;6.670;2023-08-21T01:28:30;19.60;99.90
19017;DHT22;9641;51.494;6.670;2023-08-21T01:31:01;19.50;99.90
19017;DHT22;9641;51.494;6.670;2023-08-21T01:33:33;19.50;99.90
19017;DHT22;9641;51.494;6.670;2023-08-21T01:36:03;19.50;99.90
19017;DHT22;9641;51.494;6.670;2023-08-21T01:38:33;19.60;99.90
19017;DHT22;9641;51.494;6.670;2023-08-21T01:41:01;19.60;99.90
19017;DHT22;9641;51.494;6.670;2023-08-21T01:43:28;19.60;99.90
19017;DHT22;9641;51.494;6.670;2023-08-21T01:45:55;19.50;99.90
19017;DHT22;9641;51.494;6.670;2023-08-21T01:48:22;19.50;99.90
19017;DHT22;9641;51.494;6.670;2023-08-21T01:50:49;19.40;99.90
19017;DHT22;9641;51.494;6.670;2023-08-21T01:53:16;19.40;99.90
19017;DHT22;9641;51.494;6.670;2023-08-21T01:55:45;19.30;99.90
19017;DHT22;9641;51.494;6.670;2023-08-21T01:58:14;19.30;99.90
19017;DHT22;9641;51.494;6.670;2023-08-21T02:00:41;19.30;99.90
19017;DHT22;9641;51.494;6.670;2023-08-21T02:03:08;19.20;99.90
19017;DHT22;9641;51.494;6.670;2023-08-21T02:05:38;19.20;99.90
19017;DHT22;9641;51.494;6.670;2023-08-21T02:08:06;19.20;99.90
19017;DHT22;9641;51.494;6.670;2023-08-21T02:10:34;19.20;99.90
19017;DHT22;9641;51.494;6.670;2023-08-21T02:13:03;19.20;99.90
19017;DHT22;9641;51.494;6.670;2023-08-21T02:15:31;19.20;99.90
19017;DHT22;9641;51.494;6.670;2023-08-21T02:17:58;19.30;99.90
19017;DHT22;9641;51.494;6.670;2023-08-21T02:20:25;19.30;99.90
19017;DHT22;9641;51.494;6.670;2023-08-21T02:22:52;19.40;99.90
19017;DHT22;9641;51.494;6.670;2023-08-21T02:25:19;19.40;99.90
19017;DHT22;9641;51.494;6.670;2023-08-21T02:27:46;19.40;99.90
19017;DHT22;9641;51.494;6.670;2023-08-21T02:30:15;19.30;99.90
19017;DHT22;9641;51.494;6.670;2023-08-21T02:32:42;19.30;99.90
19017;DHT22;9641;51.494;6.670;2023-08-21T02:35:09;19.30;99.90
19017;DHT22;9641;51.494;6.670;2023-08-21T02:37:37;19.30;99.90
19017;DHT22;9641;51.494;6.670;2023-08-21T02:40:06;19.20;99.90
19017;DHT22;9641;51.494;6.670;2023-08-21T02:42:35;19.10;99.90
19017;DHT22;9641;51.494;6.670;2023-08-21T02:45:05;19.20;99.90
19017;DHT22;9641;51.494;6.670;2023-08-21T02:47:37;19.20;99.90
19017;DHT22;9641;51.494;6.670;2023-08-21T02:50:05;19.20;99.90
19017;DHT22;9641;51.494;6.670;2023-08-21T02:52:33;19.20;99.90
19017;DHT22;9641;51.494;6.670;2023-08-21T02:55:01;19.10;99.90
19017;DHT22;9641;51.494;6.670;2023-08-21T02:57:28;19.00;99.90
19017;DHT22;9641;51.494;6.670;2023-08-21T02:59:55;19.10;99.90
19017;DHT22;9641;51.494;6.670;2023-08-21T03:02:22;19.10;99.90
19017;DHT22;9641;51.494;6.670;2023-08-21T03:04:52;19.10;99.90
19017;DHT22;9641;51.494;6.670;2023-08-21T03:07:19;19.00;99.90
19017;DHT22;9641;51.494;6.670;2023-08-21T03:09:47;19.00;99.90
19017;DHT22;9641;51.494;6.670;2023-08-21T03:12:14;18.90;99.90
19017;DHT22;9641;51.494;6.670;2023-08-21T03:14:41;18.90;99.90
19017;DHT22;9641;51.494;6.670;2023-08-21T03:17:09;18.90;99.90
19017;DHT22;9641;51.494;6.670;2023-08-21T03:19:36;18.90;99.90
19017;DHT22;9641;51.494;6.670;2023-08-21T03:22:04;18.90;99.90
19017;DHT22;9641;51.494;6.670;2023-08-21T03:24:33;18.90;99.90
19017;DHT22;9641;51.494;6.670;2023-08-21T03:27:01;19.00;99.90
19017;DHT22;9641;51.494;6.670;2023-08-21T03:29:29;18.90;99.90
19017;DHT22;9641;51.494;6.670;2023-08-21T03:31:58;18.90;99.90
19017;DHT22;9641;51.494;6.670;2023-08-21T03:34:25;18.90;99.90
19017;DHT22;9641;51.494;6.670;2023-08-21T03:36:56;18.80;99.90
19017;DHT22;9641;51.494;6.670;2023-08-21T03:39:25;18.80;99.90
19017;DHT22;9641;51.494;6.670;2023-08-21T03:41:54;18.80;99.90
19017;DHT22;9641;51.494;6.670;2023-08-21T03:44:23;18.70;99.90
19017;DHT22;9641;51.494;6.670;2023-08-21T03:46:50;18.80;99.90
19017;DHT22;9641;51.494;6.670;2023-08-21T03:49:17;18.70;99.90
19017;DHT22;9641;51.494;6.670;2023-08-21T03:51:48;18.60;99.90
19017;DHT22;9641;51.494;6.670;2023-08-21T03:54:15;18.70;99.90
19017;DHT22;9641;51.494;6.670;2023-08-21T03:56:43;18.80;99.90
19017;DHT22;9641;51.494;6.670;2023-08-21T03:59:10;18.90;99.90
19017;DHT22;9641;51.494;6.670;2023-08-21T04:01:40;18.80;99.90
19017;DHT22;9641;51.494;6.670;2023-08-21T04:04:07;18.80;99.90
19017;DHT22;9641;51.494;6.670;2023-08-21T04:06:36;18.80;99.90
19017;DHT22;9641;51.494;6.670;2023-08-21T04:09:03;18.90;99.90
19017;DHT22;9641;51.494;6.670;2023-08-21T04:11:32;18.90;99.90
19017;DHT22;9641;51.494;6.670;2023-08-21T04:14:01;18.90;99.90
19017;DHT22;9641;51.494;6.670;2023-08-21T04:16:28;18.80;99.90
19017;DHT22;9641;51.494;6.670;2023-08-21T04:18:56;18.80;99.90
19017;DHT22;9641;51.494;6.670;2023-08-21T04:21:24;18.70;99.90
19017;DHT22;9641;51.494;6.670;2023-08-21T04:23:53;18.70;99.90
19017;DHT22;9641;51.494;6.670;2023-08-21T04:26:21;18.80;99.90
19017;DHT22;9641;51.494;6.670;2023-08-21T04:28:48;18.80;99.90
19017;DHT22;9641;51.494;6.670;2023-08-21T04:31:17;18.90;99.90
19017;DHT22;9641;51.494;6.670;2023-08-21T04:33:47;18.90;98.70
19017;DHT22;9641;51.494;6.670;2023-08-21T04:36:15;18.90;97.60
19017;DHT22;9641;51.494;6.670;2023-08-21T04:38:43;18.90;96.50
19017;DHT22;9641;51.494;6.670;2023-08-21T04:41:10;18.90;97.80
19017;DHT22;9641;51.494;6.670;2023-08-21T04:43:41;18.80;97.90
19017;DHT22;9641;51.494;6.670;2023-08-21T04:46:10;18.90;99.90
19017;DHT22;9641;51.494;6.670;2023-08-21T04:48:41;18.80;99.90
19017;DHT22;9641;51.494;6.670;2023-08-21T04:51:08;18.80;99.90
19017;DHT22;9641;51.494;6.670;2023-08-21T04:53:36;18.70;99.90
19017;DHT22;9641;51.494;6.670;2023-08-21T04:56:07;18.90;99.90
19017;DHT22;9641;51.494;6.670;2023-08-21T04:58:35;18.90;99.70
19017;DHT22;9641;51.494;6.670;2023-08-21T05:01:04;19.00;99.90
19017;DHT22;9641;51.494;6.670;2023-08-21T05:03:33;19.00;99.90
19017;DHT22;9641;51.494;6.670;2023-08-21T05:06:02;19.10;99.90
19017;DHT22;9641;51.494;6.670;2023-08-21T05:08:29;19.10;99.90
19017;DHT22;9641;51.494;6.670;2023-08-21T05:10:56;19.10;99.90
19017;DHT22;9641;51.494;6.670;2023-08-21T05:13:24;19.00;99.90
19017;DHT22;9641;51.494;6.670;2023-08-21T05:15:53;19.10;99.90
19017;DHT22;9641;51.494;6.670;2023-08-21T05:18:22;19.00;99.90
19017;DHT22;9641;51.494;6.670;2023-08-21T05:20:50;18.90;99.90
19017;DHT22;9641;51.494;6.670;2023-08-21T05:23:18;18.90;99.90
19017;DHT22;9641;51.494;6.670;2023-08-21T05:25:49;18.90;99.90
19017;DHT22;9641;51.494;6.670;2023-08-21T05:28:16;19.00;99.90
19017;DHT22;9641;51.494;6.670;2023-08-21T05:30:43;19.00;99.90
19017;DHT22;9641;51.494;6.670;2023-08-21T05:33:13;19.00;74.80
19017;DHT22;9641;51.494;6.670;2023-08-21T05:35:41;19.10;62.10
19017;DHT22;9641;51.494;6.670;2023-08-21T05:38:09;19.10;69.20
19017;DHT22;9641;51.494;6.670;2023-08-21T05:40:40;19.20;91.90
19017;DHT22;9641;51.494;6.670;2023-08-21T05:43:16;19.30;87.20
19017;DHT22;9641;51.494;6.670;2023-08-21T05:45:43;19.40;90.20
19017;DHT22;9641;51.494;6.670;2023-08-21T05:48:12;19.40;58.00
19017;DHT22;9641;51.494;6.670;2023-08-21T05:50:39;19.40;73.20
19017;DHT22;9641;51.494;6.670;2023-08-21T05:53:06;19.40;83.40
19017;DHT22;9641;51.494;6.670;2023-08-21T05:55:33;19.50;90.20
19017;DHT22;9641;51.494;6.670;2023-08-21T05:58:05;19.50;71.40
19017;DHT22;9641;51.494;6.670;2023-08-21T06:00:33;19.60;80.50
19017;DHT22;9641;51.494;6.670;2023-08-21T06:03:02;19.70;27.60
19017;DHT22;9641;51.494;6.670;2023-08-21T06:05:45;19.60;29.50
19017;DHT22;9641;51.494;6.670;2023-08-21T06:08:12;19.70;38.10
19017;DHT22;9641;51.494;6.670;2023-08-21T06:10:40;19.70;36.00
19017;DHT22;9641;51.494;6.670;2023-08-21T06:13:09;19.80;48.20
19017;DHT22;9641;51.494;6.670;2023-08-21T06:15:37;19.80;37.60
19017;DHT22;9641;51.494;6.670;2023-08-21T06:18:04;19.90;58.80
19017;DHT22;9641;51.494;6.670;2023-08-21T06:20:32;19.90;62.00
19017;DHT22;9641;51.494;6.670;2023-08-21T06:22:59;19.90;55.10
19017;DHT22;9641;51.494;6.670;2023-08-21T06:25:26;19.90;55.00
19017;DHT22;9641;51.494;6.670;2023-08-21T06:27:56;20.00;55.50
19017;DHT22;9641;51.494;6.670;2023-08-21T06:30:26;20.00;74.90
19017;DHT22;9641;51.494;6.670;2023-08-21T06:32:53;20.10;54.50
19017;DHT22;9641;51.494;6.670;2023-08-21T06:35:25;20.20;14.90
19017;DHT22;9641;51.494;6.670;2023-08-21T06:37:53;20.30;18.60
19017;DHT22;9641;51.494;6.670;2023-08-21T06:40:21;20.30;15.10
19017;DHT22;9641;51.494;6.670;2023-08-21T06:42:48;20.40;19.30
19017;DHT22;9641;51.494;6.670;2023-08-21T06:45:22;20.40;1.00
19017;DHT22;9641;51.494;6.670;2023-08-21T06:47:51;20.40;1.00
19017;DHT22;9641;51.494;6.670;2023-08-21T06:50:18;20.50;1.00
19017;DHT22;9641;51.494;6.670;2023-08-21T06:52:45;20.60;1.00
19017;DHT22;9641;51.494;6.670;2023-08-21T06:55:12;20.70;1.00
19017;DHT22;9641;51.494;6.670;2023-08-21T06:57:39;20.90;1.00
19017;DHT22;9641;51.494;6.670;2023-08-21T07:00:17;21.00;1.00
19017;DHT22;9641;51.494;6.670;2023-08-21T07:02:46;21.10;1.00
19017;DHT22;9641;51.494;6.670;2023-08-21T07:05:14;21.20;1.00
19017;DHT22;9641;51.494;6.670;2023-08-21T07:07:41;21.20;1.00
19017;DHT22;9641;51.494;6.670;2023-08-21T07:10:09;21.20;1.00
19017;DHT22;9641;51.494;6.670;2023-08-21T07:12:36;21.10;1.00
19017;DHT22;9641;51.494;6.670;2023-08-21T07:15:04;20.90;1.00
19017;DHT22;9641;51.494;6.670;2023-08-21T07:17:31;20.90;1.00
19017;DHT22;9641;51.494;6.670;2023-08-21T07:19:58;21.00;1.00
19017;DHT22;9641;51.494;6.670;2023-08-21T07:22:26;20.90;1.00
19017;DHT22;9641;51.494;6.670;2023-08-21T07:24:55;21.10;1.00
19017;DHT22;9641;51.494;6.670;2023-08-21T07:27:24;21.20;1.00
19017;DHT22;9641;51.494;6.670;2023-08-21T07:29:51;21.30;1.00
19017;DHT22;9641;51.494;6.670;2023-08-21T07:32:18;21.40;1.00
19017;DHT22;9641;51.494;6.670;2023-08-21T07:34:45;21.70;1.00
19017;DHT22;9641;51.494;6.670;2023-08-21T07:37:14;21.70;99.90
19017;DHT22;9641;51.494;6.670;2023-08-21T07:39:42;21.70;99.90
19017;DHT22;9641;51.494;6.670;2023-08-21T07:42:11;21.80;99.90
19017;DHT22;9641;51.494;6.670;2023-08-21T07:44:39;21.80;1.00
19017;DHT22;9641;51.494;6.670;2023-08-21T07:47:08;21.80;99.90
19017;DHT22;9641;51.494;6.670;2023-08-21T07:49:35;21.70;99.90
19017;DHT22;9641;51.494;6.670;2023-08-21T07:52:03;21.70;1.00
19017;DHT22;9641;51.494;6.670;2023-08-21T07:54:30;21.90;99.90
19017;DHT22;9641;51.494;6.670;2023-08-21T07:57:00;21.90;1.00
19017;DHT22;9641;51.494;6.670;2023-08-21T07:59:27;22.00;99.90
19017;DHT22;9641;51.494;6.670;2023-08-21T08:01:54;22.00;99.90
19017;DHT22;9641;51.494;6.670;2023-08-21T08:04:21;22.10;99.90
19017;DHT22;9641;51.494;6.670;2023-08-21T08:06:50;22.20;1.00
19017;DHT22;9641;51.494;6.670;2023-08-21T08:09:17;22.20;1.00
19017;DHT22;9641;51.494;6.670;2023-08-21T08:11:45;22.10;1.00
19017;DHT22;9641;51.494;6.670;2023-08-21T08:14:13;22.10;99.90
19017;DHT22;9641;51.494;6.670;2023-08-21T08:16:41;22.00;1.00
19017;DHT22;9641;51.494;6.670;2023-08-21T08:19:08;22.00;1.00
19017;DHT22;9641;51.494;6.670;2023-08-21T08:21:37;22.00;99.90
19017;DHT22;9641;51.494;6.670;2023-08-21T08:24:04;22.00;1.00
19017;DHT22;9641;51.494;6.670;2023-08-21T08:26:32;22.00;60.90
19017;DHT22;9641;51.494;6.670;2023-08-21T08:29:16;22.00;99.90
19017;DHT22;9641;51.494;6.670;2023-08-21T08:31:43;22.10;1.00
19017;DHT22;9641;51.494;6.670;2023-08-21T08:34:10;22.10;1.00
19017;DHT22;9641;51.494;6.670;2023-08-21T08:36:38;22.20;1.00
19017;DHT22;9641;51.494;6.670;2023-08-21T08:39:07;22.20;1.00
19017;DHT22;9641;51.494;6.670;2023-08-21T08:41:44;22.30;70.40
19017;DHT22;9641;51.494;6.670;2023-08-21T08:44:18;22.40;99.90
19017;DHT22;9641;51.494;6.670;2023-08-21T08:47:03;22.40;99.90
19017;DHT22;9641;51.494;6.670;2023-08-21T08:49:31;22.50;16.50
19017;DHT22;9641;51.494;6.670;2023-08-21T08:52:00;22.60;1.00
19017;DHT22;9641;51.494;6.670;2023-08-21T08:54:27;22.70;1.00
19017;DHT22;9641;51.494;6.670;2023-08-21T08:56:56;22.70;1.00
19017;DHT22;9641;51.494;6.670;2023-08-21T08:59:29;22.80;1.00
19017;DHT22;9641;51.494;6.670;2023-08-21T09:01:57;22.80;1.00
19017;DHT22;9641;51.494;6.670;2023-08-21T09:04:24;22.90;99.90
19017;DHT22;9641;51.494;6.670;2023-08-21T09:06:51;22.90;99.90
19017;DHT22;9641;51.494;6.670;2023-08-21T09:09:18;23.00;99.90
19017;DHT22;9641;51.494;6.670;2023-08-21T09:11:49;23.00;99.90
19017;DHT22;9641;51.494;6.670;2023-08-21T09:14:27;23.00;99.90
19017;DHT22;9641;51.494;6.670;2023-08-21T09:17:00;23.10;99.90
19017;DHT22;9641;51.494;6.670;2023-08-21T09:19:29;23.10;99.90
19017;DHT22;9641;51.494;6.670;2023-08-21T09:21:56;23.10;99.90
19017;DHT22;9641;51.494;6.670;2023-08-21T09:24:23;23.20;99.90
19017;DHT22;9641;51.494;6.670;2023-08-21T09:26:50;23.20;99.90
19017;DHT22;9641;51.494;6.670;2023-08-21T09:29:18;23.30;99.90
19017;DHT22;9641;51.494;6.670;2023-08-21T09:31:46;23.30;99.90
19017;DHT22;9641;51.494;6.670;2023-08-21T09:34:13;23.40;99.90
19017;DHT22;9641;51.494;6.670;2023-08-21T09:36:40;23.50;99.90
19017;DHT22;9641;51.494;6.670;2023-08-21T09:39:15;23.50;99.90
19017;DHT22;9641;51.494;6.670;2023-08-21T09:41:55;23.50;99.90
19017;DHT22;9641;51.494;6.670;2023-08-21T09:44:22;23.60;99.90
19017;DHT22;9641;51.494;6.670;2023-08-21T09:46:50;23.70;99.90
19017;DHT22;9641;51.494;6.670;2023-08-21T09:49:17;23.80;99.90
19017;DHT22;9641;51.494;6.670;2023-08-21T09:51:45;23.80;99.90
19017;DHT22;9641;51.494;6.670;2023-08-21T09:54:13;24.00;99.90
19017;DHT22;9641;51.494;6.670;2023-08-21T09:56:40;24.20;99.90
19017;DHT22;9641;51.494;6.670;2023-08-21T09:59:09;24.30;99.90
19017;DHT22;9641;51.494;6.670;2023-08-21T10:01:36;24.30;99.90
19017;DHT22;9641;51.494;6.670;2023-08-21T10:04:08;24.40;99.90
19017;DHT22;9641;51.494;6.670;2023-08-21T10:06:35;24.60;99.90
19017;DHT22;9641;51.494;6.670;2023-08-21T10:09:02;24.60;99.90
19017;DHT22;9641;51.494;6.670;2023-08-21T10:11:29;24.70;99.90
19017;DHT22;9641;51.494;6.670;2023-08-21T10:13:58;24.60;99.90
19017;DHT22;9641;51.494;6.670;2023-08-21T10:16:25;24.60;99.90
19017;DHT22;9641;51.494;6.670;2023-08-21T10:18:52;24.50;99.90
19017;DHT22;9641;51.494;6.670;2023-08-21T10:21:22;24.40;99.90
19017;DHT22;9641;51.494;6.670;2023-08-21T10:23:53;24.50;99.90
19017;DHT22;9641;51.494;6.670;2023-08-21T10:26:22;24.60;99.90
19017;DHT22;9641;51.494;6.670;2023-08-21T10:28:53;24.60;99.90
19017;DHT22;9641;51.494;6.670;2023-08-21T10:31:28;24.60;99.40
19017;DHT22;9641;51.494;6.670;2023-08-21T10:33:56;24.70;99.90
19017;DHT22;9641;51.494;6.670;2023-08-21T10:37:04;24.80;99.90
19017;DHT22;9641;51.494;6.670;2023-08-21T10:39:33;25.00;99.90
19017;DHT22;9641;51.494;6.670;2023-08-21T10:42:04;25.00;1.00
19017;DHT22;9641;51.494;6.670;2023-08-21T10:44:36;25.00;25.50
19017;DHT22;9641;51.494;6.670;2023-08-21T10:47:16;25.10;42.60
19017;DHT22;9641;51.494;6.670;2023-08-21T10:49:45;25.20;1.00
19017;DHT22;9641;51.494;6.670;2023-08-21T10:52:14;25.20;3.40
19017;DHT22;9641;51.494;6.670;2023-08-21T10:54:45;25.30;1.00
19017;DHT22;9641;51.494;6.670;2023-08-21T10:57:12;25.50;13.40
19017;DHT22;9641;51.494;6.670;2023-08-21T10:59:52;25.50;1.00
19017;DHT22;9641;51.494;6.670;2023-08-21T11:02:19;25.50;1.00
19017;DHT22;9641;51.494;6.670;2023-08-21T11:04:47;25.60;1.00
19017;DHT22;9641;51.494;6.670;2023-08-21T11:07:15;25.70;1.00
19017;DHT22;9641;51.494;6.670;2023-08-21T11:09:42;25.70;1.00
19017;DHT22;9641;51.494;6.670;2023-08-21T11:12:11;25.90;1.00
19017;DHT22;9641;51.494;6.670;2023-08-21T11:14:39;25.90;1.00
19017;DHT22;9641;51.494;6.670;2023-08-21T11:17:08;26.00;1.00
19017;DHT22;9641;51.494;6.670;2023-08-21T11:19:37;25.90;1.00
19017;DHT22;9641;51.494;6.670;2023-08-21T11:22:04;26.00;1.00
19017;DHT22;9641;51.494;6.670;2023-08-21T11:24:42;25.90;1.00
19017;DHT22;9641;51.494;6.670;2023-08-21T11:27:11;26.00;1.00
19017;DHT22;9641;51.494;6.670;2023-08-21T11:29:39;26.30;1.00
19017;DHT22;9641;51.494;6.670;2023-08-21T11:32:10;26.30;1.00
19017;DHT22;9641;51.494;6.670;2023-08-21T11:34:38;26.40;1.00
19017;DHT22;9641;51.494;6.670;2023-08-21T11:37:05;26.50;1.00
19017;DHT22;9641;51.494;6.670;2023-08-21T11:39:47;26.40;1.00
19017;DHT22;9641;51.494;6.670;2023-08-21T11:42:14;26.60;1.00
19017;DHT22;9641;51.494;6.670;2023-08-21T11:44:46;26.70;1.00
19017;DHT22;9641;51.494;6.670;2023-08-21T11:47:14;26.80;1.00
19017;DHT22;9641;51.494;6.670;2023-08-21T11:49:41;26.90;1.00
19017;DHT22;9641;51.494;6.670;2023-08-21T11:52:09;26.90;1.00
19017;DHT22;9641;51.494;6.670;2023-08-21T11:54:39;27.10;1.00
19017;DHT22;9641;51.494;6.670;2023-08-21T11:57:13;27.20;1.00
19017;DHT22;9641;51.494;6.670;2023-08-21T11:59:40;27.40;1.00
19017;DHT22;9641;51.494;6.670;2023-08-21T12:02:14;27.40;1.00
19017;DHT22;9641;51.494;6.670;2023-08-21T12:04:41;27.40;1.00
19017;DHT22;9641;51.494;6.670;2023-08-21T12:07:08;27.40;1.00
19017;DHT22;9641;51.494;6.670;2023-08-21T12:09:35;27.30;1.00
19017;DHT22;9641;51.494;6.670;2023-08-21T12:12:02;27.40;1.00
19017;DHT22;9641;51.494;6.670;2023-08-21T12:14:30;27.60;1.00
19017;DHT22;9641;51.494;6.670;2023-08-21T12:16:57;27.70;1.00
19017;DHT22;9641;51.494;6.670;2023-08-21T12:19:24;27.50;1.00
19017;DHT22;9641;51.494;6.670;2023-08-21T12:21:51;27.70;1.00
19017;DHT22;9641;51.494;6.670;2023-08-21T12:24:18;27.90;1.00
19017;DHT22;9641;51.494;6.670;2023-08-21T12:26:44;27.90;1.00
19017;DHT22;9641;51.494;6.670;2023-08-21T12:29:11;28.00;1.00
19017;DHT22;9641;51.494;6.670;2023-08-21T12:31:39;28.00;1.00
19017;DHT22;9641;51.494;6.670;2023-08-21T12:34:06;28.30;1.00
19017;DHT22;9641;51.494;6.670;2023-08-21T12:36:34;28.40;1.00
19017;DHT22;9641;51.494;6.670;2023-08-21T12:39:02;28.30;1.00
19017;DHT22;9641;51.494;6.670;2023-08-21T12:41:29;28.20;1.00
19017;DHT22;9641;51.494;6.670;2023-08-21T12:43:56;28.30;1.00
19017;DHT22;9641;51.494;6.670;2023-08-21T12:46:23;28.50;1.00
19017;DHT22;9641;51.494;6.670;2023-08-21T12:48:53;28.70;99.90
19017;DHT22;9641;51.494;6.670;2023-08-21T12:51:19;29.10;99.90
19017;DHT22;9641;51.494;6.670;2023-08-21T12:53:46;29.30;99.90
19017;DHT22;9641;51.494;6.670;2023-08-21T12:56:13;29.20;99.90
19017;DHT22;9641;51.494;6.670;2023-08-21T12:58:40;29.10;99.90
19017;DHT22;9641;51.494;6.670;2023-08-21T13:01:06;28.90;99.90
19017;DHT22;9641;51.494;6.670;2023-08-21T13:03:34;29.00;99.90
19017;DHT22;9641;51.494;6.670;2023-08-21T13:06:02;29.40;99.90
19017;DHT22;9641;51.494;6.670;2023-08-21T13:08:29;29.60;99.90
19017;DHT22;9641;51.494;6.670;2023-08-21T13:10:56;30.00;99.90
19017;DHT22;9641;51.494;6.670;2023-08-21T13:13:23;29.90;99.90
19017;DHT22;9641;51.494;6.670;2023-08-21T13:15:50;29.90;99.90
19017;DHT22;9641;51.494;6.670;2023-08-21T13:18:17;29.60;99.90
19017;DHT22;9641;51.494;6.670;2023-08-21T13:20:44;29.60;99.90
19017;DHT22;9641;51.494;6.670;2023-08-21T13:23:12;29.60;99.90
19017;DHT22;9641;51.494;6.670;2023-08-21T13:25:39;30.00;99.90
19017;DHT22;9641;51.494;6.670;2023-08-21T13:28:06;30.10;99.90
19017;DHT22;9641;51.494;6.670;2023-08-21T13:30:32;30.10;99.90
19017;DHT22;9641;51.494;6.670;2023-08-21T13:32:59;29.90;99.90
19017;DHT22;9641;51.494;6.670;2023-08-21T13:35:26;30.10;99.90
19017;DHT22;9641;51.494;6.670;2023-08-21T13:37:53;30.60;99.90
19017;DHT22;9641;51.494;6.670;2023-08-21T13:40:21;30.70;99.90
19017;DHT22;9641;51.494;6.670;2023-08-21T13:42:48;31.00;99.90
19017;DHT22;9641;51.494;6.670;2023-08-21T13:45:16;31.00;99.90
19017;DHT22;9641;51.494;6.670;2023-08-21T13:47:44;31.20;99.90
19017;DHT22;9641;51.494;6.670;2023-08-21T13:50:11;31.50;99.90
19017;DHT22;9641;51.494;6.670;2023-08-21T13:52:38;31.30;99.90
19017;DHT22;9641;51.494;6.670;2023-08-21T13:55:07;31.30;99.90
19017;DHT22;9641;51.494;6.670;2023-08-21T13:57:36;31.60;99.90
19017;DHT22;9641;51.494;6.670;2023-08-21T14:00:04;31.50;99.90
19017;DHT22;9641;51.494;6.670;2023-08-21T14:02:33;31.50;84.90
19017;DHT22;9641;51.494;6.670;2023-08-21T14:05:00;31.70;99.90
19017;DHT22;9641;51.494;6.670;2023-08-21T14:07:27;31.90;96.90
19017;DHT22;9641;51.494;6.670;2023-08-21T14:09:54;32.00;92.80
19017;DHT22;9641;51.494;6.670;2023-08-21T14:12:21;32.50;88.70
19017;DHT22;9641;51.494;6.670;2023-08-21T14:14:49;32.90;1.00
19017;DHT22;9641;51.494;6.670;2023-08-21T14:17:16;32.40;1.00
19017;DHT22;9641;51.494;6.670;2023-08-21T14:19:43;32.40;1.00
19017;DHT22;9641;51.494;6.670;2023-08-21T14:22:10;32.50;1.00
19017;DHT22;9641;51.494;6.670;2023-08-21T14:24:36;32.10;1.00
19017;DHT22;9641;51.494;6.670;2023-08-21T14:27:04;32.10;1.00
19017;DHT22;9641;51.494;6.670;2023-08-21T14:29:30;32.30;1.00
19017;DHT22;9641;51.494;6.670;2023-08-21T14:31:59;32.70;1.00
19017;DHT22;9641;51.494;6.670;2023-08-21T14:34:26;33.00;1.00
19017;DHT22;9641;51.494;6.670;2023-08-21T14:36:53;33.30;1.00
19017;DHT22;9641;51.494;6.670;2023-08-21T14:39:25;33.30;1.00
19017;DHT22;9641;51.494;6.670;2023-08-21T14:41:55;32.70;1.00
19017;DHT22;9641;51.494;6.670;2023-08-21T14:44:22;31.90;1.00
19017;DHT22;9641;51.494;6.670;2023-08-21T14:46:49;31.80;1.00
19017;DHT22;9641;51.494;6.670;2023-08-21T14:49:21;31.70;1.00
19017;DHT22;9641;51.494;6.670;2023-08-21T14:51:49;31.10;1.00
19017;DHT22;9641;51.494;6.670;2023-08-21T14:54:16;31.00;1.00
19017;DHT22;9641;51.494;6.670;2023-08-21T14:56:42;31.30;1.00
19017;DHT22;9641;51.494;6.670;2023-08-21T14:59:10;31.80;1.00
19017;DHT22;9641;51.494;6.670;2023-08-21T15:01:37;32.40;1.00
19017;DHT22;9641;51.494;6.670;2023-08-21T15:04:05;33.00;1.00
19017;DHT22;9641;51.494;6.670;2023-08-21T15:06:33;33.60;1.00
19017;DHT22;9641;51.494;6.670;2023-08-21T15:09:00;33.90;1.00
19017;DHT22;9641;51.494;6.670;2023-08-21T15:11:27;33.40;1.00
19017;DHT22;9641;51.494;6.670;2023-08-21T15:13:54;32.50;1.00
19017;DHT22;9641;51.494;6.670;2023-08-21T15:16:21;32.30;1.00
19017;DHT22;9641;51.494;6.670;2023-08-21T15:18:48;32.20;1.00
19017;DHT22;9641;51.494;6.670;2023-08-21T15:21:18;32.30;1.00
19017;DHT22;9641;51.494;6.670;2023-08-21T15:23:46;32.20;1.00
19017;DHT22;9641;51.494;6.670;2023-08-21T15:26:13;31.50;1.00
19017;DHT22;9641;51.494;6.670;2023-08-21T15:28:40;31.30;1.00
19017;DHT22;9641;51.494;6.670;2023-08-21T15:31:06;31.50;1.00
19017;DHT22;9641;51.494;6.670;2023-08-21T15:33:34;32.00;1.00
19017;DHT22;9641;51.494;6.670;2023-08-21T15:36:01;32.60;1.00
19017;DHT22;9641;51.494;6.670;2023-08-21T15:38:28;32.60;1.00
19017;DHT22;9641;51.494;6.670;2023-08-21T15:40:56;31.80;1.00
19017;DHT22;9641;51.494;6.670;2023-08-21T15:43:23;31.20;1.00
19017;DHT22;9641;51.494;6.670;2023-08-21T15:45:51;30.40;1.00
19017;DHT22;9641;51.494;6.670;2023-08-21T15:48:18;29.70;1.00
19017;DHT22;9641;51.494;6.670;2023-08-21T15:50:45;29.10;1.00
19017;DHT22;9641;51.494;6.670;2023-08-21T15:53:12;28.60;1.00
19017;DHT22;9641;51.494;6.670;2023-08-21T15:55:39;28.20;1.00
19017;DHT22;9641;51.494;6.670;2023-08-21T15:58:07;27.90;1.00
19017;DHT22;9641;51.494;6.670;2023-08-21T16:00:34;27.70;1.00